sensor_id;sensor_type;location;lat;lon;timestamp;temperature;humidity
67163;DHT22;54092;53.088;8.850;2023-08-17T00:01:23;16.90;99.90
67163;DHT22;54092;53.088;8.850;2023-08-17T00:03:48;16.90;99.90
67163;DHT22;54092;53.088;8.850;2023-08-17T00:06:14;16.90;99.90
67163;DHT22;54092;53.088;8.850;2023-08-17T00:08:40;16.90;99.90
67163;DHT22;54092;53.088;8.850;2023-08-17T00:11:05;16.90;99.90
67163;DHT22;54092;53.088;8.850;2023-08-17T00:13:31;16.90;99.90
67163;DHT22;54092;53.088;8.850;2023-08-17T00:15:56;16.90;99.90
67163;DHT22;54092;53.088;8.850;2023-08-17T00:18:22;16.90;99.90
67163;DHT22;54092;53.088;8.850;2023-08-17T00:20:47;16.90;99.90
67163;DHT22;54092;53.088;8.850;2023-08-17T00:23:13;16.90;99.90
67163;DHT22;54092;53.088;8.850;2023-08-17T00:25:39;16.90;99.90
67163;DHT22;54092;53.088;8.850;2023-08-17T00:28:05;16.90;99.90
67163;DHT22;54092;53.088;8.850;2023-08-17T00:30:30;16.80;99.90
67163;DHT22;54092;53.088;8.850;2023-08-17T00:32:56;16.80;99.90
67163;DHT22;54092;53.088;8.850;2023-08-17T00:35:21;16.80;99.90
67163;DHT22;54092;53.088;8.850;2023-08-17T00:37:47;16.80;99.90
67163;DHT22;54092;53.088;8.850;2023-08-17T00:40:12;16.80;99.90
67163;DHT22;54092;53.088;8.850;2023-08-17T00:42:38;16.80;99.90
67163;DHT22;54092;53.088;8.850;2023-08-17T00:45:03;16.80;99.90
67163;DHT22;54092;53.088;8.850;2023-08-17T00:47:29;16.80;99.90
67163;DHT22;54092;53.088;8.850;2023-08-17T00:49:56;16.80;99.90
67163;DHT22;54092;53.088;8.850;2023-08-17T00:52:23;16.80;99.90
67163;DHT22;54092;53.088;8.850;2023-08-17T00:54:49;16.80;99.90
67163;DHT22;54092;53.088;8.850;2023-08-17T00:57:14;16.70;99.90
67163;DHT22;54092;53.088;8.850;2023-08-17T00:59:40;16.80;99.90
67163;DHT22;54092;53.088;8.850;2023-08-17T01:02:06;16.70;99.90
67163;DHT22;54092;53.088;8.850;2023-08-17T01:04:32;16.70;99.90
67163;DHT22;54092;53.088;8.850;2023-08-17T01:06:57;16.70;99.90
67163;DHT22;54092;53.088;8.850;2023-08-17T01:09:23;16.70;99.90
67163;DHT22;54092;53.088;8.850;2023-08-17T01:12:13;16.70;99.90
67163;DHT22;54092;53.088;8.850;2023-08-17T01:15:22;16.70;99.90
67163;DHT22;54092;53.088;8.850;2023-08-17T01:18:08;16.70;99.90
67163;DHT22;54092;53.088;8.850;2023-08-17T01:20:36;16.70;99.90
67163;DHT22;54092;53.088;8.850;2023-08-17T01:23:06;16.70;99.90
67163;DHT22;54092;53.088;8.850;2023-08-17T01:25:32;16.70;99.90
67163;DHT22;54092;53.088;8.850;2023-08-17T01:28:03;16.70;99.90
67163;DHT22;54092;53.088;8.850;2023-08-17T01:30:32;16.70;99.90
67163;DHT22;54092;53.088;8.850;2023-08-17T01:33:06;16.70;99.90
67163;DHT22;54092;53.088;8.850;2023-08-17T01:38:04;16.70;99.90
67163;DHT22;54092;53.088;8.850;2023-08-17T01:40:33;16.70;99.90
67163;DHT22;54092;53.088;8.850;2023-08-17T01:43:00;16.70;99.90
67163;DHT22;54092;53.088;8.850;2023-08-17T01:45:26;16.70;99.90
67163;DHT22;54092;53.088;8.850;2023-08-17T01:47:52;16.70;99.90
67163;DHT22;54092;53.088;8.850;2023-08-17T01:50:17;16.70;99.90
67163;DHT22;54092;53.088;8.850;2023-08-17T01:52:43;16.70;99.90
67163;DHT22;54092;53.088;8.850;2023-08-17T01:55:09;16.70;99.90
67163;DHT22;54092;53.088;8.850;2023-08-17T01:57:34;16.70;99.90
67163;DHT22;54092;53.088;8.850;2023-08-17T02:00:03;16.70;99.90
67163;DHT22;54092;53.088;8.850;2023-08-17T02:02:28;16.60;99.90
67163;DHT22;54092;53.088;8.850;2023-08-17T02:04:54;16.60;99.90
67163;DHT22;54092;53.088;8.850;2023-08-17T02:07:19;16.60;99.90
67163;DHT22;54092;53.088;8.850;2023-08-17T02:09:44;16.60;99.90
67163;DHT22;54092;53.088;8.850;2023-08-17T02:12:10;16.60;99.90
67163;DHT22;54092;53.088;8.850;2023-08-17T02:14:35;16.60;99.90
67163;DHT22;54092;53.088;8.850;2023-08-17T02:17:01;16.60;99.90
67163;DHT22;54092;53.088;8.850;2023-08-17T02:19:26;16.60;99.90
67163;DHT22;54092;53.088;8.850;2023-08-17T02:21:52;16.70;99.90
67163;DHT22;54092;53.088;8.850;2023-08-17T02:24:17;16.70;99.90
67163;DHT22;54092;53.088;8.850;2023-08-17T02:26:43;16.60;99.90
67163;DHT22;54092;53.088;8.850;2023-08-17T02:29:08;16.70;99.90
67163;DHT22;54092;53.088;8.850;2023-08-17T02:31:34;16.60;99.90
67163;DHT22;54092;53.088;8.850;2023-08-17T02:33:59;16.50;99.90
67163;DHT22;54092;53.088;8.850;2023-08-17T02:36:30;16.50;99.90
67163;DHT22;54092;53.088;8.850;2023-08-17T02:38:56;16.60;99.90
67163;DHT22;54092;53.088;8.850;2023-08-17T02:41:21;16.60;99.90
67163;DHT22;54092;53.088;8.850;2023-08-17T02:43:47;16.60;99.90
67163;DHT22;54092;53.088;8.850;2023-08-17T02:46:12;16.50;99.90
67163;DHT22;54092;53.088;8.850;2023-08-17T02:48:38;16.50;99.90
67163;DHT22;54092;53.088;8.850;2023-08-17T02:51:04;16.50;99.90
67163;DHT22;54092;53.088;8.850;2023-08-17T02:53:29;16.60;99.90
67163;DHT22;54092;53.088;8.850;2023-08-17T02:55:55;16.50;99.90
67163;DHT22;54092;53.088;8.850;2023-08-17T02:58:20;16.50;99.90
67163;DHT22;54092;53.088;8.850;2023-08-17T03:00:46;16.50;99.90
67163;DHT22;54092;53.088;8.850;2023-08-17T03:03:11;16.50;99.90
67163;DHT22;54092;53.088;8.850;2023-08-17T03:05:37;16.50;99.90
67163;DHT22;54092;53.088;8.850;2023-08-17T03:08:03;16.50;99.90
67163;DHT22;54092;53.088;8.850;2023-08-17T03:10:29;16.50;99.90
67163;DHT22;54092;53.088;8.850;2023-08-17T03:12:55;16.50;99.90
67163;DHT22;54092;53.088;8.850;2023-08-17T03:15:20;16.50;99.90
67163;DHT22;54092;53.088;8.850;2023-08-17T03:17:46;16.50;99.90
67163;DHT22;54092;53.088;8.850;2023-08-17T03:20:11;16.50;99.90
67163;DHT22;54092;53.088;8.850;2023-08-17T03:22:37;16.50;99.90
67163;DHT22;54092;53.088;8.850;2023-08-17T03:25:03;16.50;99.90
67163;DHT22;54092;53.088;8.850;2023-08-17T03:27:29;16.50;99.90
67163;DHT22;54092;53.088;8.850;2023-08-17T03:29:54;16.50;99.90
67163;DHT22;54092;53.088;8.850;2023-08-17T03:32:20;16.50;99.90
67163;DHT22;54092;53.088;8.850;2023-08-17T03:34:45;16.60;99.90
67163;DHT22;54092;53.088;8.850;2023-08-17T03:37:11;16.50;99.90
67163;DHT22;54092;53.088;8.850;2023-08-17T03:39:36;16.60;99.90
67163;DHT22;54092;53.088;8.850;2023-08-17T03:42:02;16.50;99.90
67163;DHT22;54092;53.088;8.850;2023-08-17T03:44:28;16.60;99.90
67163;DHT22;54092;53.088;8.850;2023-08-17T03:46:53;16.50;99.90
67163;DHT22;54092;53.088;8.850;2023-08-17T03:49:19;16.50;99.90
67163;DHT22;54092;53.088;8.850;2023-08-17T03:51:45;16.50;99.90
67163;DHT22;54092;53.088;8.850;2023-08-17T03:54:11;16.50;99.90
67163;DHT22;54092;53.088;8.850;2023-08-17T03:56:37;16.60;99.90
67163;DHT22;54092;53.088;8.850;2023-08-17T03:59:03;16.60;99.90
67163;DHT22;54092;53.088;8.850;2023-08-17T04:01:29;16.60;99.90
67163;DHT22;54092;53.088;8.850;2023-08-17T04:03:54;16.60;99.90
67163;DHT22;54092;53.088;8.850;2023-08-17T04:06:20;16.60;99.90
67163;DHT22;54092;53.088;8.850;2023-08-17T04:08:46;16.60;99.90
67163;DHT22;54092;53.088;8.850;2023-08-17T04:11:11;16.60;99.90
67163;DHT22;54092;53.088;8.850;2023-08-17T04:13:37;16.60;99.90
67163;DHT22;54092;53.088;8.850;2023-08-17T04:16:02;16.60;99.90
67163;DHT22;54092;53.088;8.850;2023-08-17T04:18:28;16.50;99.90
67163;DHT22;54092;53.088;8.850;2023-08-17T04:20:53;16.50;99.90
67163;DHT22;54092;53.088;8.850;2023-08-17T04:23:19;16.50;99.90
67163;DHT22;54092;53.088;8.850;2023-08-17T04:25:46;16.50;99.90
67163;DHT22;54092;53.088;8.850;2023-08-17T04:28:12;16.50;99.90
67163;DHT22;54092;53.088;8.850;2023-08-17T04:30:38;16.50;99.90
67163;DHT22;54092;53.088;8.850;2023-08-17T04:33:04;16.50;99.90
67163;DHT22;54092;53.088;8.850;2023-08-17T04:35:29;16.50;99.90
67163;DHT22;54092;53.088;8.850;2023-08-17T04:37:55;16.50;99.90
67163;DHT22;54092;53.088;8.850;2023-08-17T04:40:21;16.50;99.90
67163;DHT22;54092;53.088;8.850;2023-08-17T04:42:47;16.50;99.90
67163;DHT22;54092;53.088;8.850;2023-08-17T04:45:13;16.50;99.90
67163;DHT22;54092;53.088;8.850;2023-08-17T04:47:39;16.50;99.90
67163;DHT22;54092;53.088;8.850;2023-08-17T04:50:05;16.50;99.90
67163;DHT22;54092;53.088;8.850;2023-08-17T04:52:31;16.50;99.90
67163;DHT22;54092;53.088;8.850;2023-08-17T04:54:56;16.50;99.90
67163;DHT22;54092;53.088;8.850;2023-08-17T04:57:22;16.50;99.90
67163;DHT22;54092;53.088;8.850;2023-08-17T04:59:48;16.50;99.90
67163;DHT22;54092;53.088;8.850;2023-08-17T05:02:13;16.50;99.90
67163;DHT22;54092;53.088;8.850;2023-08-17T05:04:39;16.50;99.90
67163;DHT22;54092;53.088;8.850;2023-08-17T05:07:05;16.50;99.90
67163;DHT22;54092;53.088;8.850;2023-08-17T05:09:31;16.50;99.90
67163;DHT22;54092;53.088;8.850;2023-08-17T05:11:56;16.50;99.90
67163;DHT22;54092;53.088;8.850;2023-08-17T05:14:22;16.50;99.90
67163;DHT22;54092;53.088;8.850;2023-08-17T05:16:48;16.50;99.90
67163;DHT22;54092;53.088;8.850;2023-08-17T05:19:13;16.50;99.90
67163;DHT22;54092;53.088;8.850;2023-08-17T05:21:39;16.50;99.90
67163;DHT22;54092;53.088;8.850;2023-08-17T05:24:04;16.60;99.90
67163;DHT22;54092;53.088;8.850;2023-08-17T05:26:30;16.60;99.90
67163;DHT22;54092;53.088;8.850;2023-08-17T05:28:55;16.70;99.90
67163;DHT22;54092;53.088;8.850;2023-08-17T05:31:21;16.60;99.90
67163;DHT22;54092;53.088;8.850;2023-08-17T05:33:46;16.70;99.90
67163;DHT22;54092;53.088;8.850;2023-08-17T05:36:12;16.70;99.90
67163;DHT22;54092;53.088;8.850;2023-08-17T05:38:38;16.90;99.90
67163;DHT22;54092;53.088;8.850;2023-08-17T05:41:04;16.90;99.90
67163;DHT22;54092;53.088;8.850;2023-08-17T05:43:29;16.90;99.90
67163;DHT22;54092;53.088;8.850;2023-08-17T05:45:57;16.90;99.90
67163;DHT22;54092;53.088;8.850;2023-08-17T05:48:23;16.80;99.90
67163;DHT22;54092;53.088;8.850;2023-08-17T05:50:49;16.80;99.90
67163;DHT22;54092;53.088;8.850;2023-08-17T05:53:14;16.90;99.90
67163;DHT22;54092;53.088;8.850;2023-08-17T05:55:40;16.90;99.90
67163;DHT22;54092;53.088;8.850;2023-08-17T05:58:05;16.90;99.90
67163;DHT22;54092;53.088;8.850;2023-08-17T06:00:31;16.90;99.90
67163;DHT22;54092;53.088;8.850;2023-08-17T06:02:56;16.90;99.90
67163;DHT22;54092;53.088;8.850;2023-08-17T06:05:27;16.90;99.90
67163;DHT22;54092;53.088;8.850;2023-08-17T06:07:54;16.90;99.90
67163;DHT22;54092;53.088;8.850;2023-08-17T06:10:19;17.00;99.90
67163;DHT22;54092;53.088;8.850;2023-08-17T06:12:46;16.90;99.90
67163;DHT22;54092;53.088;8.850;2023-08-17T06:15:13;17.00;99.90
67163;DHT22;54092;53.088;8.850;2023-08-17T06:17:39;17.00;99.90
67163;DHT22;54092;53.088;8.850;2023-08-17T06:20:05;17.00;99.90
67163;DHT22;54092;53.088;8.850;2023-08-17T06:22:32;17.10;99.90
67163;DHT22;54092;53.088;8.850;2023-08-17T06:24:58;17.10;99.90
67163;DHT22;54092;53.088;8.850;2023-08-17T06:27:23;17.20;99.90
67163;DHT22;54092;53.088;8.850;2023-08-17T06:29:49;17.20;99.90
67163;DHT22;54092;53.088;8.850;2023-08-17T06:32:14;17.30;99.90
67163;DHT22;54092;53.088;8.850;2023-08-17T06:34:40;17.40;99.90
67163;DHT22;54092;53.088;8.850;2023-08-17T06:37:05;17.50;99.90
67163;DHT22;54092;53.088;8.850;2023-08-17T06:39:31;17.50;99.90
67163;DHT22;54092;53.088;8.850;2023-08-17T06:41:56;17.50;99.90
67163;DHT22;54092;53.088;8.850;2023-08-17T06:44:22;17.50;99.90
67163;DHT22;54092;53.088;8.850;2023-08-17T06:46:47;17.40;99.90
67163;DHT22;54092;53.088;8.850;2023-08-17T06:49:13;17.40;99.90
67163;DHT22;54092;53.088;8.850;2023-08-17T06:51:39;17.40;99.90
67163;DHT22;54092;53.088;8.850;2023-08-17T06:54:07;17.40;99.90
67163;DHT22;54092;53.088;8.850;2023-08-17T06:56:32;17.30;99.90
67163;DHT22;54092;53.088;8.850;2023-08-17T06:58:58;17.30;99.90
67163;DHT22;54092;53.088;8.850;2023-08-17T07:01:23;17.40;99.90
67163;DHT22;54092;53.088;8.850;2023-08-17T07:03:49;17.40;99.90
67163;DHT22;54092;53.088;8.850;2023-08-17T07:06:14;17.40;99.90
67163;DHT22;54092;53.088;8.850;2023-08-17T07:08:40;17.40;99.90
67163;DHT22;54092;53.088;8.850;2023-08-17T07:11:05;17.40;99.90
67163;DHT22;54092;53.088;8.850;2023-08-17T07:13:31;17.40;99.90
67163;DHT22;54092;53.088;8.850;2023-08-17T07:15:57;17.40;99.90
67163;DHT22;54092;53.088;8.850;2023-08-17T07:18:23;17.40;99.90
67163;DHT22;54092;53.088;8.850;2023-08-17T07:20:48;17.40;99.90
67163;DHT22;54092;53.088;8.850;2023-08-17T07:23:15;17.40;99.90
67163;DHT22;54092;53.088;8.850;2023-08-17T07:25:40;17.40;99.90
67163;DHT22;54092;53.088;8.850;2023-08-17T07:28:06;17.50;99.90
67163;DHT22;54092;53.088;8.850;2023-08-17T07:30:32;17.50;99.90
67163;DHT22;54092;53.088;8.850;2023-08-17T07:32:57;17.60;99.90
67163;DHT22;54092;53.088;8.850;2023-08-17T07:35:23;17.60;99.90
67163;DHT22;54092;53.088;8.850;2023-08-17T07:37:48;17.50;99.90
67163;DHT22;54092;53.088;8.850;2023-08-17T07:40:14;17.60;99.90
67163;DHT22;54092;53.088;8.850;2023-08-17T07:42:39;17.60;99.90
67163;DHT22;54092;53.088;8.850;2023-08-17T07:45:05;17.70;99.90
67163;DHT22;54092;53.088;8.850;2023-08-17T07:47:34;17.80;99.90
67163;DHT22;54092;53.088;8.850;2023-08-17T07:49:59;17.90;99.90
67163;DHT22;54092;53.088;8.850;2023-08-17T07:52:25;18.00;99.90
67163;DHT22;54092;53.088;8.850;2023-08-17T07:54:50;17.90;99.90
67163;DHT22;54092;53.088;8.850;2023-08-17T07:57:16;18.00;99.90
67163;DHT22;54092;53.088;8.850;2023-08-17T07:59:41;18.00;99.90
67163;DHT22;54092;53.088;8.850;2023-08-17T08:02:07;18.10;99.90
67163;DHT22;54092;53.088;8.850;2023-08-17T08:04:32;18.00;99.90
67163;DHT22;54092;53.088;8.850;2023-08-17T08:06:58;18.10;99.90
67163;DHT22;54092;53.088;8.850;2023-08-17T08:09:23;18.00;99.90
67163;DHT22;54092;53.088;8.850;2023-08-17T08:11:49;18.10;99.90
67163;DHT22;54092;53.088;8.850;2023-08-17T08:14:14;18.10;99.90
67163;DHT22;54092;53.088;8.850;2023-08-17T08:16:40;18.10;99.90
67163;DHT22;54092;53.088;8.850;2023-08-17T08:19:05;18.10;99.90
67163;DHT22;54092;53.088;8.850;2023-08-17T08:21:31;18.10;99.90
67163;DHT22;54092;53.088;8.850;2023-08-17T08:23:56;18.10;99.90
67163;DHT22;54092;53.088;8.850;2023-08-17T08:26:22;18.20;99.90
67163;DHT22;54092;53.088;8.850;2023-08-17T08:28:47;18.20;99.90
67163;DHT22;54092;53.088;8.850;2023-08-17T08:31:13;18.30;99.90
67163;DHT22;54092;53.088;8.850;2023-08-17T08:33:38;18.30;99.90
67163;DHT22;54092;53.088;8.850;2023-08-17T08:36:04;18.30;99.90
67163;DHT22;54092;53.088;8.850;2023-08-17T08:38:31;18.40;99.90
67163;DHT22;54092;53.088;8.850;2023-08-17T08:40:57;18.40;99.90
67163;DHT22;54092;53.088;8.850;2023-08-17T08:43:23;18.40;99.90
67163;DHT22;54092;53.088;8.850;2023-08-17T08:45:51;18.40;99.90
67163;DHT22;54092;53.088;8.850;2023-08-17T08:48:18;18.40;99.90
67163;DHT22;54092;53.088;8.850;2023-08-17T08:50:45;18.30;99.90
67163;DHT22;54092;53.088;8.850;2023-08-17T08:53:14;18.20;99.90
67163;DHT22;54092;53.088;8.850;2023-08-17T08:55:47;18.20;99.90
67163;DHT22;54092;53.088;8.850;2023-08-17T08:58:15;18.20;99.90
67163;DHT22;54092;53.088;8.850;2023-08-17T09:00:41;18.20;99.90
67163;DHT22;54092;53.088;8.850;2023-08-17T09:03:07;18.20;99.90
67163;DHT22;54092;53.088;8.850;2023-08-17T09:05:33;18.10;99.90
67163;DHT22;54092;53.088;8.850;2023-08-17T09:08:00;18.00;99.90
67163;DHT22;54092;53.088;8.850;2023-08-17T09:10:27;17.90;99.90
67163;DHT22;54092;53.088;8.850;2023-08-17T09:12:53;17.90;99.90
67163;DHT22;54092;53.088;8.850;2023-08-17T09:15:18;17.90;99.90
67163;DHT22;54092;53.088;8.850;2023-08-17T09:17:44;17.90;99.90
67163;DHT22;54092;53.088;8.850;2023-08-17T09:20:10;17.90;99.90
67163;DHT22;54092;53.088;8.850;2023-08-17T09:22:41;17.80;99.90
67163;DHT22;54092;53.088;8.850;2023-08-17T09:25:08;17.80;99.90
67163;DHT22;54092;53.088;8.850;2023-08-17T09:27:36;17.80;99.90
67163;DHT22;54092;53.088;8.850;2023-08-17T09:30:03;17.80;99.90
67163;DHT22;54092;53.088;8.850;2023-08-17T09:32:31;17.70;99.90
67163;DHT22;54092;53.088;8.850;2023-08-17T09:34:56;17.70;99.90
67163;DHT22;54092;53.088;8.850;2023-08-17T09:37:22;17.70;99.90
67163;DHT22;54092;53.088;8.850;2023-08-17T09:39:48;17.70;99.90
67163;DHT22;54092;53.088;8.850;2023-08-17T09:42:14;17.70;99.90
67163;DHT22;54092;53.088;8.850;2023-08-17T09:44:41;17.70;99.90
67163;DHT22;54092;53.088;8.850;2023-08-17T09:47:07;17.90;99.90
67163;DHT22;54092;53.088;8.850;2023-08-17T09:49:33;18.10;99.90
67163;DHT22;54092;53.088;8.850;2023-08-17T09:52:02;18.30;99.90
67163;DHT22;54092;53.088;8.850;2023-08-17T09:54:30;18.60;99.90
67163;DHT22;54092;53.088;8.850;2023-08-17T09:56:56;18.70;99.90
67163;DHT22;54092;53.088;8.850;2023-08-17T09:59:22;18.70;99.90
67163;DHT22;54092;53.088;8.850;2023-08-17T10:01:50;18.80;99.90
67163;DHT22;54092;53.088;8.850;2023-08-17T10:04:20;18.70;99.90
67163;DHT22;54092;53.088;8.850;2023-08-17T10:06:48;18.70;99.90
67163;DHT22;54092;53.088;8.850;2023-08-17T10:09:21;18.70;99.90
67163;DHT22;54092;53.088;8.850;2023-08-17T10:11:51;18.70;99.90
67163;DHT22;54092;53.088;8.850;2023-08-17T10:14:22;18.60;99.90
67163;DHT22;54092;53.088;8.850;2023-08-17T10:16:57;18.70;99.90
67163;DHT22;54092;53.088;8.850;2023-08-17T10:19:43;18.80;99.90
67163;DHT22;54092;53.088;8.850;2023-08-17T10:22:20;18.90;99.90
67163;DHT22;54092;53.088;8.850;2023-08-17T10:24:49;19.00;99.90
67163;DHT22;54092;53.088;8.850;2023-08-17T10:27:17;19.00;99.90
67163;DHT22;54092;53.088;8.850;2023-08-17T10:29:43;19.00;99.90
67163;DHT22;54092;53.088;8.850;2023-08-17T10:32:10;19.10;99.90
67163;DHT22;54092;53.088;8.850;2023-08-17T10:34:37;19.20;99.90
67163;DHT22;54092;53.088;8.850;2023-08-17T10:37:04;19.40;99.90
67163;DHT22;54092;53.088;8.850;2023-08-17T10:39:30;19.50;99.90
67163;DHT22;54092;53.088;8.850;2023-08-17T10:41:57;19.60;99.90
67163;DHT22;54092;53.088;8.850;2023-08-17T10:49:57;19.20;99.90
67163;DHT22;54092;53.088;8.850;2023-08-17T10:52:28;19.10;99.90
67163;DHT22;54092;53.088;8.850;2023-08-17T10:54:54;19.10;99.90
67163;DHT22;54092;53.088;8.850;2023-08-17T11:02:43;18.80;99.90
67163;DHT22;54092;53.088;8.850;2023-08-17T11:05:10;18.90;99.90
67163;DHT22;54092;53.088;8.850;2023-08-17T11:07:42;19.00;99.90
67163;DHT22;54092;53.088;8.850;2023-08-17T11:12:46;18.90;99.90
67163;DHT22;54092;53.088;8.850;2023-08-17T11:15:11;18.90;99.90
67163;DHT22;54092;53.088;8.850;2023-08-17T11:17:37;18.90;99.90
67163;DHT22;54092;53.088;8.850;2023-08-17T11:20:04;19.10;99.90
67163;DHT22;54092;53.088;8.850;2023-08-17T11:22:29;19.10;99.90
67163;DHT22;54092;53.088;8.850;2023-08-17T11:24:55;19.10;99.90
67163;DHT22;54092;53.088;8.850;2023-08-17T11:27:21;19.30;99.90
67163;DHT22;54092;53.088;8.850;2023-08-17T11:29:47;19.40;99.90
67163;DHT22;54092;53.088;8.850;2023-08-17T11:32:16;19.40;99.90
67163;DHT22;54092;53.088;8.850;2023-08-17T11:34:42;19.40;99.90
67163;DHT22;54092;53.088;8.850;2023-08-17T11:37:07;19.50;99.90
67163;DHT22;54092;53.088;8.850;2023-08-17T11:39:36;19.40;99.90
67163;DHT22;54092;53.088;8.850;2023-08-17T11:42:01;19.40;99.90
67163;DHT22;54092;53.088;8.850;2023-08-17T11:44:27;19.40;99.90
67163;DHT22;54092;53.088;8.850;2023-08-17T11:46:53;19.50;99.90
67163;DHT22;54092;53.088;8.850;2023-08-17T11:49:19;19.40;99.90
67163;DHT22;54092;53.088;8.850;2023-08-17T11:51:44;19.50;99.90
67163;DHT22;54092;53.088;8.850;2023-08-17T11:54:10;19.40;99.90
67163;DHT22;54092;53.088;8.850;2023-08-17T11:56:37;19.40;99.90
67163;DHT22;54092;53.088;8.850;2023-08-17T11:59:09;19.40;99.90
67163;DHT22;54092;53.088;8.850;2023-08-17T12:01:36;19.20;99.90
67163;DHT22;54092;53.088;8.850;2023-08-17T12:04:04;19.20;99.90
67163;DHT22;54092;53.088;8.850;2023-08-17T12:06:31;19.00;99.90
67163;DHT22;54092;53.088;8.850;2023-08-17T12:08:56;18.70;99.90
67163;DHT22;54092;53.088;8.850;2023-08-17T12:11:24;18.60;99.90
67163;DHT22;54092;53.088;8.850;2023-08-17T12:13:53;18.40;99.90
67163;DHT22;54092;53.088;8.850;2023-08-17T12:16:19;18.30;99.90
67163;DHT22;54092;53.088;8.850;2023-08-17T12:18:48;18.20;99.90
67163;DHT22;54092;53.088;8.850;2023-08-17T12:21:14;18.20;99.90
67163;DHT22;54092;53.088;8.850;2023-08-17T12:23:40;18.00;99.90
67163;DHT22;54092;53.088;8.850;2023-08-17T12:26:07;17.90;99.90
67163;DHT22;54092;53.088;8.850;2023-08-17T12:28:32;17.90;99.90
67163;DHT22;54092;53.088;8.850;2023-08-17T12:31:00;17.90;99.90
67163;DHT22;54092;53.088;8.850;2023-08-17T12:33:26;17.90;99.90
67163;DHT22;54092;53.088;8.850;2023-08-17T12:35:51;17.90;99.90
67163;DHT22;54092;53.088;8.850;2023-08-17T12:38:17;17.90;99.90
67163;DHT22;54092;53.088;8.850;2023-08-17T12:40:43;17.90;99.90
67163;DHT22;54092;53.088;8.850;2023-08-17T12:43:08;17.90;99.90
67163;DHT22;54092;53.088;8.850;2023-08-17T12:45:34;17.90;99.90
67163;DHT22;54092;53.088;8.850;2023-08-17T12:47:59;18.00;99.90
67163;DHT22;54092;53.088;8.850;2023-08-17T12:50:25;18.00;99.90
67163;DHT22;54092;53.088;8.850;2023-08-17T12:52:50;18.00;99.90
67163;DHT22;54092;53.088;8.850;2023-08-17T12:55:16;18.10;99.90
67163;DHT22;54092;53.088;8.850;2023-08-17T12:57:42;18.00;99.90
67163;DHT22;54092;53.088;8.850;2023-08-17T13:00:07;18.00;99.90
67163;DHT22;54092;53.088;8.850;2023-08-17T13:02:34;18.00;99.90
67163;DHT22;54092;53.088;8.850;2023-08-17T13:04:59;18.00;99.90
67163;DHT22;54092;53.088;8.850;2023-08-17T13:07:25;18.10;99.90
67163;DHT22;54092;53.088;8.850;2023-08-17T13:09:50;18.10;99.90
67163;DHT22;54092;53.088;8.850;2023-08-17T13:12:16;18.10;99.90
67163;DHT22;54092;53.088;8.850;2023-08-17T13:14:41;18.00;99.90
67163;DHT22;54092;53.088;8.850;2023-08-17T13:17:07;17.90;99.90
67163;DHT22;54092;53.088;8.850;2023-08-17T13:19:33;17.90;99.90
67163;DHT22;54092;53.088;8.850;2023-08-17T13:21:58;17.90;99.90
67163;DHT22;54092;53.088;8.850;2023-08-17T13:24:24;17.80;99.90
67163;DHT22;54092;53.088;8.850;2023-08-17T13:26:49;17.60;99.90
67163;DHT22;54092;53.088;8.850;2023-08-17T13:29:18;17.50;99.90
67163;DHT22;54092;53.088;8.850;2023-08-17T13:31:46;17.50;99.90
67163;DHT22;54092;53.088;8.850;2023-08-17T13:34:11;17.30;99.90
67163;DHT22;54092;53.088;8.850;2023-08-17T13:36:37;17.20;99.90
67163;DHT22;54092;53.088;8.850;2023-08-17T13:39:03;17.20;99.90
67163;DHT22;54092;53.088;8.850;2023-08-17T13:41:28;17.20;99.90
67163;DHT22;54092;53.088;8.850;2023-08-17T13:43:54;17.20;99.90
67163;DHT22;54092;53.088;8.850;2023-08-17T13:46:20;17.20;99.90
67163;DHT22;54092;53.088;8.850;2023-08-17T13:48:46;17.20;99.90
67163;DHT22;54092;53.088;8.850;2023-08-17T13:51:11;17.30;99.90
67163;DHT22;54092;53.088;8.850;2023-08-17T13:53:38;17.40;99.90
67163;DHT22;54092;53.088;8.850;2023-08-17T13:56:04;17.40;99.90
67163;DHT22;54092;53.088;8.850;2023-08-17T13:58:29;17.40;99.90
67163;DHT22;54092;53.088;8.850;2023-08-17T14:00:55;17.50;99.90
67163;DHT22;54092;53.088;8.850;2023-08-17T14:03:20;17.50;99.90
67163;DHT22;54092;53.088;8.850;2023-08-17T14:05:46;17.50;99.90
67163;DHT22;54092;53.088;8.850;2023-08-17T14:08:11;17.50;99.90
67163;DHT22;54092;53.088;8.850;2023-08-17T14:10:37;17.50;99.90
67163;DHT22;54092;53.088;8.850;2023-08-17T14:13:03;17.50;99.90
67163;DHT22;54092;53.088;8.850;2023-08-17T14:15:29;17.60;99.90
67163;DHT22;54092;53.088;8.850;2023-08-17T14:17:54;17.60;99.90
67163;DHT22;54092;53.088;8.850;2023-08-17T14:20:20;17.60;99.90
67163;DHT22;54092;53.088;8.850;2023-08-17T14:22:46;17.60;99.90
67163;DHT22;54092;53.088;8.850;2023-08-17T14:25:11;17.60;99.90
67163;DHT22;54092;53.088;8.850;2023-08-17T14:27:37;17.70;99.90
67163;DHT22;54092;53.088;8.850;2023-08-17T14:30:02;17.70;99.90
67163;DHT22;54092;53.088;8.850;2023-08-17T14:32:29;17.60;99.90
67163;DHT22;54092;53.088;8.850;2023-08-17T14:34:54;17.50;99.90
67163;DHT22;54092;53.088;8.850;2023-08-17T14:37:20;17.50;99.90
67163;DHT22;54092;53.088;8.850;2023-08-17T14:39:45;17.60;99.90
67163;DHT22;54092;53.088;8.850;2023-08-17T14:42:12;17.50;99.90
67163;DHT22;54092;53.088;8.850;2023-08-17T14:44:37;17.50;99.90
67163;DHT22;54092;53.088;8.850;2023-08-17T14:47:03;17.50;99.90
67163;DHT22;54092;53.088;8.850;2023-08-17T14:49:29;17.40;99.90
67163;DHT22;54092;53.088;8.850;2023-08-17T14:51:55;17.40;99.90
67163;DHT22;54092;53.088;8.850;2023-08-17T14:54:20;17.40;99.90
67163;DHT22;54092;53.088;8.850;2023-08-17T14:56:46;17.40;99.90
67163;DHT22;54092;53.088;8.850;2023-08-17T14:59:11;17.40;99.90
67163;DHT22;54092;53.088;8.850;2023-08-17T15:01:37;17.40;99.90
67163;DHT22;54092;53.088;8.850;2023-08-17T15:04:02;17.40;99.90
67163;DHT22;54092;53.088;8.850;2023-08-17T15:06:28;17.30;99.90
67163;DHT22;54092;53.088;8.850;2023-08-17T15:08:54;17.30;99.90
67163;DHT22;54092;53.088;8.850;2023-08-17T15:11:19;17.40;99.90
67163;DHT22;54092;53.088;8.850;2023-08-17T15:13:45;17.40;99.90
67163;DHT22;54092;53.088;8.850;2023-08-17T15:16:11;17.40;99.90
67163;DHT22;54092;53.088;8.850;2023-08-17T15:18:37;17.40;99.90
67163;DHT22;54092;53.088;8.850;2023-08-17T15:21:03;17.30;99.90
67163;DHT22;54092;53.088;8.850;2023-08-17T15:23:28;17.20;99.90
67163;DHT22;54092;53.088;8.850;2023-08-17T15:25:54;17.30;99.90
67163;DHT22;54092;53.088;8.850;2023-08-17T15:28:19;17.30;99.90
67163;DHT22;54092;53.088;8.850;2023-08-17T15:30:45;17.30;99.90
67163;DHT22;54092;53.088;8.850;2023-08-17T15:33:11;17.30;99.90
67163;DHT22;54092;53.088;8.850;2023-08-17T15:35:36;17.30;99.90
67163;DHT22;54092;53.088;8.850;2023-08-17T15:38:02;17.40;99.90
67163;DHT22;54092;53.088;8.850;2023-08-17T15:40:27;17.40;99.90